sensor_id;sensor_type;location;lat;lon;timestamp;pressure;altitude;pressure_sealevel;temperature;humidity
33845;BME280;20145;43.118;25.694;2023-06-19T00:02:26;99338.53;;;19.86;100.00
33845;BME280;20145;43.118;25.694;2023-06-19T00:04:53;99348.69;;;19.92;100.00
33845;BME280;20145;43.118;25.694;2023-06-19T00:07:19;99344.38;;;19.91;100.00
33845;BME280;20145;43.118;25.694;2023-06-19T00:09:51;99360.56;;;19.99;100.00
33845;BME280;20145;43.118;25.694;2023-06-19T00:12:16;99362.47;;;20.13;100.00
33845;BME280;20145;43.118;25.694;2023-06-19T00:14:42;99359.69;;;20.16;100.00
33845;BME280;20145;43.118;25.694;2023-06-19T00:17:08;99359.72;;;19.98;100.00
33845;BME280;20145;43.118;25.694;2023-06-19T00:19:33;99353.47;;;20.01;100.00
33845;BME280;20145;43.118;25.694;2023-06-19T00:22:03;99336.06;;;19.82;100.00
33845;BME280;20145;43.118;25.694;2023-06-19T00:24:30;99351.63;;;19.86;100.00
33845;BME280;20145;43.118;25.694;2023-06-19T00:26:56;99360.25;;;19.88;100.00
33845;BME280;20145;43.118;25.694;2023-06-19T00:29:29;99358.72;;;19.83;100.00
33845;BME280;20145;43.118;25.694;2023-06-19T00:31:58;99349.69;;;19.89;100.00
33845;BME280;20145;43.118;25.694;2023-06-19T00:34:25;99335.97;;;19.84;100.00
33845;BME280;20145;43.118;25.694;2023-06-19T00:36:51;99357.69;;;20.03;100.00
33845;BME280;20145;43.118;25.694;2023-06-19T00:39:43;99353.66;;;20.14;100.00
33845;BME280;20145;43.118;25.694;2023-06-19T00:42:10;99355.00;;;20.05;100.00
33845;BME280;20145;43.118;25.694;2023-06-19T00:44:52;99350.97;;;19.98;100.00
33845;BME280;20145;43.118;25.694;2023-06-19T00:47:18;99345.38;;;19.88;100.00
33845;BME280;20145;43.118;25.694;2023-06-19T00:50:05;99360.94;;;19.91;100.00
33845;BME280;20145;43.118;25.694;2023-06-19T00:52:43;99362.72;;;19.91;100.00
33845;BME280;20145;43.118;25.694;2023-06-19T00:55:09;99346.44;;;19.84;100.00
33845;BME280;20145;43.118;25.694;2023-06-19T00:57:36;99345.94;;;19.77;100.00
33845;BME280;20145;43.118;25.694;2023-06-19T01:00:02;99349.84;;;19.86;100.00
33845;BME280;20145;43.118;25.694;2023-06-19T01:02:37;99346.56;;;19.82;100.00
33845;BME280;20145;43.118;25.694;2023-06-19T01:05:03;99357.09;;;19.81;100.00
33845;BME280;20145;43.118;25.694;2023-06-19T01:10:26;99352.63;;;19.83;100.00
33845;BME280;20145;43.118;25.694;2023-06-19T01:12:59;99351.69;;;19.84;100.00
33845;BME280;20145;43.118;25.694;2023-06-19T01:15:26;99338.25;;;19.74;100.00
33845;BME280;20145;43.118;25.694;2023-06-19T01:17:55;99333.00;;;19.74;100.00
33845;BME280;20145;43.118;25.694;2023-06-19T01:20:22;99338.69;;;19.82;100.00
33845;BME280;20145;43.118;25.694;2023-06-19T01:22:48;99340.38;;;19.83;100.00
33845;BME280;20145;43.118;25.694;2023-06-19T01:25:14;99330.16;;;19.79;100.00
33845;BME280;20145;43.118;25.694;2023-06-19T01:27:41;99333.00;;;19.74;100.00
33845;BME280;20145;43.118;25.694;2023-06-19T01:30:11;99346.31;;;19.87;100.00
33845;BME280;20145;43.118;25.694;2023-06-19T01:35:28;99335.19;;;19.65;100.00
33845;BME280;20145;43.118;25.694;2023-06-19T01:37:55;99347.59;;;19.61;100.00
33845;BME280;20145;43.118;25.694;2023-06-19T01:40:30;99356.13;;;19.65;100.00
33845;BME280;20145;43.118;25.694;2023-06-19T01:43:05;99330.75;;;19.49;100.00
33845;BME280;20145;43.118;25.694;2023-06-19T01:45:39;99356.59;;;19.55;100.00
33845;BME280;20145;43.118;25.694;2023-06-19T01:48:04;99358.84;;;19.46;100.00
33845;BME280;20145;43.118;25.694;2023-06-19T01:50:44;99333.06;;;19.38;100.00
33845;BME280;20145;43.118;25.694;2023-06-19T01:53:15;99365.28;;;19.38;100.00
33845;BME280;20145;43.118;25.694;2023-06-19T01:55:41;99361.84;;;19.38;100.00
33845;BME280;20145;43.118;25.694;2023-06-19T01:58:08;99356.34;;;19.43;100.00
33845;BME280;20145;43.118;25.694;2023-06-19T02:00:34;99368.53;;;19.44;100.00
33845;BME280;20145;43.118;25.694;2023-06-19T02:03:01;99359.06;;;19.41;100.00
33845;BME280;20145;43.118;25.694;2023-06-19T02:05:27;99358.22;;;19.41;100.00
33845;BME280;20145;43.118;25.694;2023-06-19T02:07:53;99361.97;;;19.35;100.00
33845;BME280;20145;43.118;25.694;2023-06-19T02:10:19;99363.03;;;19.31;100.00
33845;BME280;20145;43.118;25.694;2023-06-19T02:12:45;99369.25;;;19.28;100.00
33845;BME280;20145;43.118;25.694;2023-06-19T02:15:10;99381.28;;;19.32;100.00
33845;BME280;20145;43.118;25.694;2023-06-19T02:17:38;99374.91;;;19.38;100.00
33845;BME280;20145;43.118;25.694;2023-06-19T02:20:10;99377.44;;;19.39;100.00
33845;BME280;20145;43.118;25.694;2023-06-19T02:22:41;99381.06;;;19.37;100.00
33845;BME280;20145;43.118;25.694;2023-06-19T02:25:08;99370.69;;;19.35;100.00
33845;BME280;20145;43.118;25.694;2023-06-19T02:27:37;99379.38;;;19.36;100.00
33845;BME280;20145;43.118;25.694;2023-06-19T02:30:10;99381.19;;;19.34;100.00
33845;BME280;20145;43.118;25.694;2023-06-19T02:32:36;99376.72;;;19.19;100.00
33845;BME280;20145;43.118;25.694;2023-06-19T02:35:05;99387.19;;;19.19;100.00
33845;BME280;20145;43.118;25.694;2023-06-19T02:37:31;99386.91;;;19.06;100.00
33845;BME280;20145;43.118;25.694;2023-06-19T02:39:56;99393.22;;;19.02;100.00
33845;BME280;20145;43.118;25.694;2023-06-19T02:42:24;99406.28;;;19.21;100.00
33845;BME280;20145;43.118;25.694;2023-06-19T02:44:50;99404.84;;;19.32;100.00
33845;BME280;20145;43.118;25.694;2023-06-19T02:47:20;99385.06;;;19.27;100.00
33845;BME280;20145;43.118;25.694;2023-06-19T02:49:46;99398.47;;;19.38;100.00
33845;BME280;20145;43.118;25.694;2023-06-19T02:52:15;99401.00;;;19.39;100.00
33845;BME280;20145;43.118;25.694;2023-06-19T02:54:40;99404.19;;;19.46;100.00
33845;BME280;20145;43.118;25.694;2023-06-19T02:57:07;99396.94;;;19.51;100.00
33845;BME280;20145;43.118;25.694;2023-06-19T02:59:34;99388.47;;;19.46;100.00
33845;BME280;20145;43.118;25.694;2023-06-19T03:01:59;99378.63;;;19.51;100.00
33845;BME280;20145;43.118;25.694;2023-06-19T03:04:25;99389.31;;;19.64;100.00
33845;BME280;20145;43.118;25.694;2023-06-19T03:06:51;99388.47;;;19.64;100.00
33845;BME280;20145;43.118;25.694;2023-06-19T03:09:18;99381.47;;;19.64;100.00
33845;BME280;20145;43.118;25.694;2023-06-19T03:11:44;99381.34;;;19.67;100.00
33845;BME280;20145;43.118;25.694;2023-06-19T03:14:09;99380.44;;;19.68;100.00
33845;BME280;20145;43.118;25.694;2023-06-19T03:16:37;99378.94;;;19.63;100.00
33845;BME280;20145;43.118;25.694;2023-06-19T03:19:02;99368.06;;;19.53;100.00
33845;BME280;20145;43.118;25.694;2023-06-19T03:21:31;99391.59;;;19.72;100.00
33845;BME280;20145;43.118;25.694;2023-06-19T03:24:00;99346.91;;;19.57;100.00
33845;BME280;20145;43.118;25.694;2023-06-19T03:26:26;99382.66;;;19.76;100.00
33845;BME280;20145;43.118;25.694;2023-06-19T03:28:51;99373.28;;;19.72;100.00
33845;BME280;20145;43.118;25.694;2023-06-19T03:31:18;99358.72;;;19.66;100.00
33845;BME280;20145;43.118;25.694;2023-06-19T03:33:43;99368.66;;;19.77;100.00
33845;BME280;20145;43.118;25.694;2023-06-19T03:36:09;99369.03;;;19.69;100.00
33845;BME280;20145;43.118;25.694;2023-06-19T03:38:34;99382.38;;;19.82;100.00
33845;BME280;20145;43.118;25.694;2023-06-19T03:41:00;99380.75;;;19.79;100.00
33845;BME280;20145;43.118;25.694;2023-06-19T03:43:26;99384.22;;;19.80;100.00
33845;BME280;20145;43.118;25.694;2023-06-19T03:45:51;99395.16;;;19.88;100.00
33845;BME280;20145;43.118;25.694;2023-06-19T03:48:18;99385.28;;;19.93;100.00
33845;BME280;20145;43.118;25.694;2023-06-19T03:50:44;99396.56;;;20.11;100.00
33845;BME280;20145;43.118;25.694;2023-06-19T03:53:09;99389.34;;;20.16;100.00
33845;BME280;20145;43.118;25.694;2023-06-19T03:55:35;99409.94;;;20.57;100.00
33845;BME280;20145;43.118;25.694;2023-06-19T03:58:00;99407.59;;;21.00;100.00
33845;BME280;20145;43.118;25.694;2023-06-19T04:00:26;99403.72;;;21.23;100.00
33845;BME280;20145;43.118;25.694;2023-06-19T04:02:52;99388.06;;;21.22;100.00
33845;BME280;20145;43.118;25.694;2023-06-19T04:05:17;99398.41;;;20.93;94.44
33845;BME280;20145;43.118;25.694;2023-06-19T04:07:45;99406.66;;;21.17;98.52
33845;BME280;20145;43.118;25.694;2023-06-19T04:10:11;99392.03;;;21.13;100.00
33845;BME280;20145;43.118;25.694;2023-06-19T04:12:37;99395.00;;;21.07;99.79
33845;BME280;20145;43.118;25.694;2023-06-19T04:15:04;99403.63;;;21.09;100.00
33845;BME280;20145;43.118;25.694;2023-06-19T04:17:30;99392.28;;;21.08;100.00
33845;BME280;20145;43.118;25.694;2023-06-19T04:19:58;99408.38;;;21.18;99.55
33845;BME280;20145;43.118;25.694;2023-06-19T04:22:29;99420.72;;;21.16;99.27
33845;BME280;20145;43.118;25.694;2023-06-19T04:24:58;99418.09;;;21.16;99.48
33845;BME280;20145;43.118;25.694;2023-06-19T04:27:23;99411.91;;;21.17;100.00
33845;BME280;20145;43.118;25.694;2023-06-19T04:29:50;99386.63;;;21.48;100.00
33845;BME280;20145;43.118;25.694;2023-06-19T04:32:18;99385.28;;;22.15;99.37
33845;BME280;20145;43.118;25.694;2023-06-19T04:34:44;99404.63;;;23.14;96.49
33845;BME280;20145;43.118;25.694;2023-06-19T04:37:11;99414.34;;;23.94;93.02
33845;BME280;20145;43.118;25.694;2023-06-19T04:39:38;99421.66;;;24.03;87.74
33845;BME280;20145;43.118;25.694;2023-06-19T04:42:09;99430.38;;;23.64;86.18
33845;BME280;20145;43.118;25.694;2023-06-19T04:44:37;99435.06;;;23.46;85.99
33845;BME280;20145;43.118;25.694;2023-06-19T04:47:03;99435.34;;;23.14;88.22
33845;BME280;20145;43.118;25.694;2023-06-19T04:49:29;99440.16;;;22.79;90.72
33845;BME280;20145;43.118;25.694;2023-06-19T04:52:00;99424.03;;;22.56;92.02
33845;BME280;20145;43.118;25.694;2023-06-19T04:54:26;99441.56;;;22.56;91.55
33845;BME280;20145;43.118;25.694;2023-06-19T04:56:52;99436.59;;;22.51;90.80
33845;BME280;20145;43.118;25.694;2023-06-19T04:59:18;99439.50;;;22.46;92.79
33845;BME280;20145;43.118;25.694;2023-06-19T05:01:44;99456.13;;;22.47;92.77
33845;BME280;20145;43.118;25.694;2023-06-19T05:04:12;99450.97;;;22.60;95.36
33845;BME280;20145;43.118;25.694;2023-06-19T05:06:39;99455.84;;;22.80;92.75
33845;BME280;20145;43.118;25.694;2023-06-19T05:09:07;99441.03;;;23.35;92.65
33845;BME280;20145;43.118;25.694;2023-06-19T05:11:33;99431.47;;;23.47;89.54
33845;BME280;20145;43.118;25.694;2023-06-19T05:14:00;99417.19;;;23.51;87.67
33845;BME280;20145;43.118;25.694;2023-06-19T05:16:28;99437.16;;;23.68;88.13
33845;BME280;20145;43.118;25.694;2023-06-19T05:18:54;99453.88;;;23.94;87.45
33845;BME280;20145;43.118;25.694;2023-06-19T05:21:21;99455.09;;;24.15;87.65
33845;BME280;20145;43.118;25.694;2023-06-19T05:23:47;99453.28;;;24.16;87.08
33845;BME280;20145;43.118;25.694;2023-06-19T05:26:16;99438.94;;;24.07;86.40
33845;BME280;20145;43.118;25.694;2023-06-19T05:28:43;99453.66;;;24.37;83.89
33845;BME280;20145;43.118;25.694;2023-06-19T05:31:08;99435.31;;;24.48;84.32
33845;BME280;20145;43.118;25.694;2023-06-19T05:33:35;99440.38;;;24.51;83.71
33845;BME280;20145;43.118;25.694;2023-06-19T05:36:02;99446.69;;;24.74;83.44
33845;BME280;20145;43.118;25.694;2023-06-19T05:38:27;99454.91;;;24.82;82.04
33845;BME280;20145;43.118;25.694;2023-06-19T05:40:58;99453.16;;;25.07;80.20
33845;BME280;20145;43.118;25.694;2023-06-19T05:43:25;99448.41;;;25.25;81.01
33845;BME280;20145;43.118;25.694;2023-06-19T05:45:55;99436.88;;;25.13;79.79
33845;BME280;20145;43.118;25.694;2023-06-19T05:48:29;99458.00;;;25.26;80.20
33845;BME280;20145;43.118;25.694;2023-06-19T05:50:54;99458.56;;;25.18;80.09
33845;BME280;20145;43.118;25.694;2023-06-19T05:53:21;99463.34;;;25.00;78.67
33845;BME280;20145;43.118;25.694;2023-06-19T05:55:46;99462.03;;;25.19;79.54
33845;BME280;20145;43.118;25.694;2023-06-19T05:58:12;99453.31;;;25.05;78.50
33845;BME280;20145;43.118;25.694;2023-06-19T06:00:40;99451.34;;;24.83;82.54
33845;BME280;20145;43.118;25.694;2023-06-19T06:03:08;99459.56;;;24.79;77.45
33845;BME280;20145;43.118;25.694;2023-06-19T06:05:36;99442.16;;;24.63;79.58
33845;BME280;20145;43.118;25.694;2023-06-19T06:08:08;99454.50;;;24.76;79.86
33845;BME280;20145;43.118;25.694;2023-06-19T06:10:33;99461.47;;;24.77;75.91
33845;BME280;20145;43.118;25.694;2023-06-19T06:13:00;99462.53;;;24.61;76.86
33845;BME280;20145;43.118;25.694;2023-06-19T06:15:25;99443.31;;;24.59;77.00
33845;BME280;20145;43.118;25.694;2023-06-19T06:17:51;99449.75;;;24.68;76.51
33845;BME280;20145;43.118;25.694;2023-06-19T06:20:16;99450.59;;;24.68;78.13
33845;BME280;20145;43.118;25.694;2023-06-19T06:22:42;99454.28;;;24.66;79.84
33845;BME280;20145;43.118;25.694;2023-06-19T06:25:09;99442.38;;;24.73;78.35
33845;BME280;20145;43.118;25.694;2023-06-19T06:27:36;99453.56;;;25.13;77.48
33845;BME280;20145;43.118;25.694;2023-06-19T06:30:03;99461.09;;;25.20;75.18
33845;BME280;20145;43.118;25.694;2023-06-19T06:32:32;99449.25;;;25.12;74.79
33845;BME280;20145;43.118;25.694;2023-06-19T06:34:59;99448.25;;;25.39;75.46
33845;BME280;20145;43.118;25.694;2023-06-19T06:37:25;99443.41;;;25.57;76.17
33845;BME280;20145;43.118;25.694;2023-06-19T06:39:50;99451.78;;;25.51;73.59
33845;BME280;20145;43.118;25.694;2023-06-19T06:42:17;99435.13;;;25.37;72.29
33845;BME280;20145;43.118;25.694;2023-06-19T06:44:44;99439.75;;;25.47;72.75
33845;BME280;20145;43.118;25.694;2023-06-19T06:47:09;99435.22;;;25.12;72.45
33845;BME280;20145;43.118;25.694;2023-06-19T06:49:35;99448.28;;;25.26;74.19
33845;BME280;20145;43.118;25.694;2023-06-19T06:52:07;99420.81;;;25.29;73.35
33845;BME280;20145;43.118;25.694;2023-06-19T06:54:34;99433.63;;;25.46;71.74
33845;BME280;20145;43.118;25.694;2023-06-19T06:56:59;99440.88;;;25.55;73.08
33845;BME280;20145;43.118;25.694;2023-06-19T06:59:26;99451.34;;;25.57;72.61
33845;BME280;20145;43.118;25.694;2023-06-19T07:01:54;99447.84;;;25.56;71.57
33845;BME280;20145;43.118;25.694;2023-06-19T07:04:21;99439.81;;;25.58;70.31
33845;BME280;20145;43.118;25.694;2023-06-19T07:06:47;99451.06;;;25.73;72.20
33845;BME280;20145;43.118;25.694;2023-06-19T07:09:13;99454.38;;;25.64;71.39
33845;BME280;20145;43.118;25.694;2023-06-19T07:11:40;99444.41;;;25.67;72.22
33845;BME280;20145;43.118;25.694;2023-06-19T07:14:06;99438.47;;;25.52;73.36
33845;BME280;20145;43.118;25.694;2023-06-19T07:16:31;99423.88;;;25.47;71.58
33845;BME280;20145;43.118;25.694;2023-06-19T07:18:57;99441.03;;;25.65;73.03
33845;BME280;20145;43.118;25.694;2023-06-19T07:21:23;99457.06;;;25.75;71.58
33845;BME280;20145;43.118;25.694;2023-06-19T07:23:49;99446.22;;;25.91;70.53
33845;BME280;20145;43.118;25.694;2023-06-19T07:26:15;99456.56;;;25.94;69.11
33845;BME280;20145;43.118;25.694;2023-06-19T07:28:41;99441.66;;;25.69;72.44
33845;BME280;20145;43.118;25.694;2023-06-19T07:31:07;99450.81;;;25.52;70.61
33845;BME280;20145;43.118;25.694;2023-06-19T07:33:33;99457.50;;;25.69;71.52
33845;BME280;20145;43.118;25.694;2023-06-19T07:35:59;99441.72;;;25.56;71.61
33845;BME280;20145;43.118;25.694;2023-06-19T07:38:26;99448.97;;;25.65;69.71
33845;BME280;20145;43.118;25.694;2023-06-19T07:47:35;99468.84;;;25.95;69.43
33845;BME280;20145;43.118;25.694;2023-06-19T07:50:03;99469.34;;;26.00;69.47
33845;BME280;20145;43.118;25.694;2023-06-19T07:55:51;99467.06;;;26.07;65.96
33845;BME280;20145;43.118;25.694;2023-06-19T08:01:39;99470.97;;;26.25;65.59
33845;BME280;20145;43.118;25.694;2023-06-19T08:04:06;99462.59;;;26.07;64.87
33845;BME280;20145;43.118;25.694;2023-06-19T08:06:32;99479.75;;;26.25;65.14
33845;BME280;20145;43.118;25.694;2023-06-19T08:09:00;99474.66;;;26.58;66.04
33845;BME280;20145;43.118;25.694;2023-06-19T08:11:26;99471.28;;;26.56;64.32
33845;BME280;20145;43.118;25.694;2023-06-19T08:13:52;99462.38;;;26.10;64.60
33845;BME280;20145;43.118;25.694;2023-06-19T08:16:18;99469.19;;;26.01;65.66
33845;BME280;20145;43.118;25.694;2023-06-19T08:18:47;99464.13;;;26.34;65.51
33845;BME280;20145;43.118;25.694;2023-06-19T08:21:13;99471.16;;;26.68;66.34
33845;BME280;20145;43.118;25.694;2023-06-19T08:23:39;99482.78;;;26.43;63.78
33845;BME280;20145;43.118;25.694;2023-06-19T08:26:09;99464.72;;;26.37;63.86
33845;BME280;20145;43.118;25.694;2023-06-19T08:28:34;99487.19;;;26.67;62.86
33845;BME280;20145;43.118;25.694;2023-06-19T08:31:00;99466.50;;;26.72;64.60
33845;BME280;20145;43.118;25.694;2023-06-19T08:33:26;99473.47;;;26.84;64.67
33845;BME280;20145;43.118;25.694;2023-06-19T08:35:51;99481.75;;;26.80;64.19
33845;BME280;20145;43.118;25.694;2023-06-19T08:38:20;99463.22;;;26.68;64.36
33845;BME280;20145;43.118;25.694;2023-06-19T08:40:48;99480.84;;;26.45;65.55
33845;BME280;20145;43.118;25.694;2023-06-19T08:43:14;99485.47;;;26.55;69.58
33845;BME280;20145;43.118;25.694;2023-06-19T08:45:40;99463.47;;;26.54;70.21
33845;BME280;20145;43.118;25.694;2023-06-19T08:48:06;99487.16;;;26.56;65.71
33845;BME280;20145;43.118;25.694;2023-06-19T08:50:33;99477.06;;;26.61;65.34
33845;BME280;20145;43.118;25.694;2023-06-19T08:52:59;99478.25;;;26.90;66.36
33845;BME280;20145;43.118;25.694;2023-06-19T08:55:25;99459.03;;;26.88;66.16
33845;BME280;20145;43.118;25.694;2023-06-19T08:57:51;99481.41;;;27.18;64.27
33845;BME280;20145;43.118;25.694;2023-06-19T09:00:29;99488.25;;;27.09;63.87
33845;BME280;20145;43.118;25.694;2023-06-19T09:03:03;99484.03;;;26.73;65.62
33845;BME280;20145;43.118;25.694;2023-06-19T09:05:41;99479.56;;;26.51;65.29
33845;BME280;20145;43.118;25.694;2023-06-19T09:08:13;99469.19;;;26.37;65.10
33845;BME280;20145;43.118;25.694;2023-06-19T09:10:38;99475.31;;;26.48;64.68
33845;BME280;20145;43.118;25.694;2023-06-19T09:13:05;99451.56;;;26.71;64.90
33845;BME280;20145;43.118;25.694;2023-06-19T09:15:34;99468.53;;;26.91;67.14
33845;BME280;20145;43.118;25.694;2023-06-19T09:20:30;99471.00;;;26.47;67.42
33845;BME280;20145;43.118;25.694;2023-06-19T09:22:59;99464.91;;;26.81;66.74
33845;BME280;20145;43.118;25.694;2023-06-19T09:25:26;99467.81;;;27.00;63.33
33845;BME280;20145;43.118;25.694;2023-06-19T09:27:55;99474.25;;;27.52;63.81
33845;BME280;20145;43.118;25.694;2023-06-19T09:30:21;99464.88;;;27.80;63.90
33845;BME280;20145;43.118;25.694;2023-06-19T09:32:52;99454.09;;;27.93;60.89
33845;BME280;20145;43.118;25.694;2023-06-19T09:35:18;99441.63;;;27.73;60.35
33845;BME280;20145;43.118;25.694;2023-06-19T09:37:45;99473.31;;;27.86;61.50
33845;BME280;20145;43.118;25.694;2023-06-19T09:40:12;99468.34;;;28.34;61.01
33845;BME280;20145;43.118;25.694;2023-06-19T09:42:41;99466.28;;;28.17;59.55
33845;BME280;20145;43.118;25.694;2023-06-19T09:45:12;99466.31;;;28.27;60.90
33845;BME280;20145;43.118;25.694;2023-06-19T09:47:45;99474.06;;;28.51;60.35
33845;BME280;20145;43.118;25.694;2023-06-19T09:50:15;99454.81;;;28.58;60.69
33845;BME280;20145;43.118;25.694;2023-06-19T09:52:42;99468.63;;;28.83;59.53
33845;BME280;20145;43.118;25.694;2023-06-19T09:55:10;99469.63;;;28.61;59.50
33845;BME280;20145;43.118;25.694;2023-06-19T09:57:45;99457.13;;;28.10;59.15
33845;BME280;20145;43.118;25.694;2023-06-19T10:00:12;99466.44;;;28.04;60.57
33845;BME280;20145;43.118;25.694;2023-06-19T10:02:41;99457.47;;;27.95;61.57
33845;BME280;20145;43.118;25.694;2023-06-19T10:05:08;99444.13;;;28.28;62.84
33845;BME280;20145;43.118;25.694;2023-06-19T10:07:37;99446.84;;;28.58;58.74
33845;BME280;20145;43.118;25.694;2023-06-19T10:12:44;99451.19;;;28.17;58.66
33845;BME280;20145;43.118;25.694;2023-06-19T10:20:29;99453.44;;;28.64;58.12
33845;BME280;20145;43.118;25.694;2023-06-19T10:25:37;99446.16;;;28.35;60.50
33845;BME280;20145;43.118;25.694;2023-06-19T10:28:04;99441.06;;;28.32;59.50
33845;BME280;20145;43.118;25.694;2023-06-19T10:30:33;99449.03;;;28.43;59.36
33845;BME280;20145;43.118;25.694;2023-06-19T10:33:01;99428.84;;;28.20;60.47
33845;BME280;20145;43.118;25.694;2023-06-19T10:35:37;99406.09;;;27.96;60.53
33845;BME280;20145;43.118;25.694;2023-06-19T10:38:04;99416.00;;;27.62;61.68
33845;BME280;20145;43.118;25.694;2023-06-19T10:40:29;99442.47;;;27.41;63.61
33845;BME280;20145;43.118;25.694;2023-06-19T10:42:55;99419.06;;;27.46;62.47
33845;BME280;20145;43.118;25.694;2023-06-19T10:45:21;99398.06;;;27.54;62.79
33845;BME280;20145;43.118;25.694;2023-06-19T10:47:54;99418.88;;;28.12;62.14
33845;BME280;20145;43.118;25.694;2023-06-19T10:50:20;99425.41;;;28.29;59.56
33845;BME280;20145;43.118;25.694;2023-06-19T10:52:46;99403.19;;;27.99;60.57
33845;BME280;20145;43.118;25.694;2023-06-19T10:55:13;99421.09;;;27.54;60.60
33845;BME280;20145;43.118;25.694;2023-06-19T10:57:44;99389.31;;;27.43;62.90
33845;BME280;20145;43.118;25.694;2023-06-19T11:00:10;99403.91;;;27.69;63.23
33845;BME280;20145;43.118;25.694;2023-06-19T11:02:40;99397.06;;;27.67;59.75
33845;BME280;20145;43.118;25.694;2023-06-19T11:05:09;99384.25;;;27.72;60.19
33845;BME280;20145;43.118;25.694;2023-06-19T11:07:36;99394.03;;;27.71;60.21
33845;BME280;20145;43.118;25.694;2023-06-19T11:10:19;99382.97;;;27.66;61.17
33845;BME280;20145;43.118;25.694;2023-06-19T11:12:57;99384.59;;;27.78;59.02
33845;BME280;20145;43.118;25.694;2023-06-19T11:15:33;99379.41;;;27.77;59.16
33845;BME280;20145;43.118;25.694;2023-06-19T11:18:00;99379.72;;;27.63;59.36
33845;BME280;20145;43.118;25.694;2023-06-19T11:24:12;99395.28;;;28.40;58.02
33845;BME280;20145;43.118;25.694;2023-06-19T11:26:46;99390.97;;;28.39;58.04
33845;BME280;20145;43.118;25.694;2023-06-19T11:29:34;99396.13;;;28.40;56.50
33845;BME280;20145;43.118;25.694;2023-06-19T11:32:09;99400.38;;;28.22;57.50
33845;BME280;20145;43.118;25.694;2023-06-19T11:37:43;99383.91;;;27.65;59.37
33845;BME280;20145;43.118;25.694;2023-06-19T11:40:09;99404.47;;;27.84;62.41
33845;BME280;20145;43.118;25.694;2023-06-19T11:42:52;99401.09;;;28.03;59.18
33845;BME280;20145;43.118;25.694;2023-06-19T11:45:18;99403.56;;;28.16;58.97
33845;BME280;20145;43.118;25.694;2023-06-19T11:47:45;99398.38;;;27.93;57.58
33845;BME280;20145;43.118;25.694;2023-06-19T11:50:12;99405.31;;;28.06;57.77
33845;BME280;20145;43.118;25.694;2023-06-19T11:52:39;99410.09;;;28.12;57.53
33845;BME280;20145;43.118;25.694;2023-06-19T11:55:20;99377.22;;;27.82;58.62
33845;BME280;20145;43.118;25.694;2023-06-19T11:57:47;99389.78;;;28.01;56.34
33845;BME280;20145;43.118;25.694;2023-06-19T12:00:14;99379.81;;;27.93;57.27
33845;BME280;20145;43.118;25.694;2023-06-19T12:02:40;99371.34;;;27.99;58.69
33845;BME280;20145;43.118;25.694;2023-06-19T12:05:06;99355.75;;;28.06;57.38
33845;BME280;20145;43.118;25.694;2023-06-19T12:07:31;99351.47;;;28.15;57.46
33845;BME280;20145;43.118;25.694;2023-06-19T12:09:58;99336.88;;;27.99;56.98
33845;BME280;20145;43.118;25.694;2023-06-19T12:12:23;99339.72;;;28.08;56.17
33845;BME280;20145;43.118;25.694;2023-06-19T12:14:51;99317.97;;;27.93;56.96
33845;BME280;20145;43.118;25.694;2023-06-19T12:17:17;99328.50;;;28.04;57.57
33845;BME280;20145;43.118;25.694;2023-06-19T12:19:42;99323.28;;;27.93;57.04
33845;BME280;20145;43.118;25.694;2023-06-19T12:22:34;99331.47;;;28.11;56.35
33845;BME280;20145;43.118;25.694;2023-06-19T12:28:11;99343.00;;;28.00;56.55
33845;BME280;20145;43.118;25.694;2023-06-19T12:30:42;99347.25;;;28.12;57.02
33845;BME280;20145;43.118;25.694;2023-06-19T12:33:07;99337.25;;;28.46;56.92
33845;BME280;20145;43.118;25.694;2023-06-19T12:35:33;99330.88;;;28.68;58.01
33845;BME280;20145;43.118;25.694;2023-06-19T12:44:10;99326.59;;;28.97;53.93
33845;BME280;20145;43.118;25.694;2023-06-19T12:46:36;99336.09;;;28.89;54.02
33845;BME280;20145;43.118;25.694;2023-06-19T12:49:02;99339.09;;;29.06;54.10
33845;BME280;20145;43.118;25.694;2023-06-19T12:57:44;99324.63;;;28.89;55.40
33845;BME280;20145;43.118;25.694;2023-06-19T13:00:11;99334.78;;;28.64;55.33
33845;BME280;20145;43.118;25.694;2023-06-19T13:02:41;99325.41;;;28.60;55.81
33845;BME280;20145;43.118;25.694;2023-06-19T13:05:09;99335.88;;;28.52;56.22
33845;BME280;20145;43.118;25.694;2023-06-19T13:07:35;99347.06;;;28.65;56.09
33845;BME280;20145;43.118;25.694;2023-06-19T13:10:00;99344.50;;;28.95;58.10
33845;BME280;20145;43.118;25.694;2023-06-19T13:12:26;99349.00;;;29.04;54.90
33845;BME280;20145;43.118;25.694;2023-06-19T13:14:52;99357.72;;;29.16;55.69
33845;BME280;20145;43.118;25.694;2023-06-19T13:17:18;99358.50;;;29.06;57.52
33845;BME280;20145;43.118;25.694;2023-06-19T13:19:44;99365.53;;;28.57;60.19
33845;BME280;20145;43.118;25.694;2023-06-19T13:22:10;99365.44;;;27.96;62.60
33845;BME280;20145;43.118;25.694;2023-06-19T13:24:35;99371.03;;;27.93;63.81
33845;BME280;20145;43.118;25.694;2023-06-19T13:27:01;99366.81;;;28.11;62.97
33845;BME280;20145;43.118;25.694;2023-06-19T13:29:27;99360.06;;;28.07;63.01
33845;BME280;20145;43.118;25.694;2023-06-19T13:31:53;99371.31;;;27.78;63.46
33845;BME280;20145;43.118;25.694;2023-06-19T13:34:18;99371.38;;;27.67;63.98
33845;BME280;20145;43.118;25.694;2023-06-19T13:36:46;99376.22;;;26.86;63.99
33845;BME280;20145;43.118;25.694;2023-06-19T13:39:12;99395.47;;;26.55;63.75
33845;BME280;20145;43.118;25.694;2023-06-19T13:41:38;99393.53;;;26.45;65.52
33845;BME280;20145;43.118;25.694;2023-06-19T13:44:04;99385.25;;;26.28;66.37
33845;BME280;20145;43.118;25.694;2023-06-19T13:46:29;99380.97;;;25.91;68.32